sensor_id;sensor_type;location;lat;lon;timestamp;temperature;humidity
45008;DHT22;30743;52.008;5.644;2023-05-23T00:01:02;18.60;99.90
45008;DHT22;30743;52.008;5.644;2023-05-23T00:03:27;18.90;99.90
45008;DHT22;30743;52.008;5.644;2023-05-23T00:05:55;18.70;99.90
45008;DHT22;30743;52.008;5.644;2023-05-23T00:08:21;18.50;99.90
45008;DHT22;30743;52.008;5.644;2023-05-23T00:10:47;18.60;99.90
45008;DHT22;30743;52.008;5.644;2023-05-23T00:13:13;18.80;99.90
45008;DHT22;30743;52.008;5.644;2023-05-23T00:15:39;18.80;99.90
45008;DHT22;30743;52.008;5.644;2023-05-23T00:18:05;18.70;99.90
45008;DHT22;30743;52.008;5.644;2023-05-23T00:20:33;18.80;99.90
45008;DHT22;30743;52.008;5.644;2023-05-23T00:23:00;19.00;99.90
45008;DHT22;30743;52.008;5.644;2023-05-23T00:25:28;19.00;99.90
45008;DHT22;30743;52.008;5.644;2023-05-23T00:28:02;19.00;99.90
45008;DHT22;30743;52.008;5.644;2023-05-23T00:30:29;19.10;99.90
45008;DHT22;30743;52.008;5.644;2023-05-23T00:32:55;19.10;99.90
45008;DHT22;30743;52.008;5.644;2023-05-23T00:35:22;19.10;99.90
45008;DHT22;30743;52.008;5.644;2023-05-23T00:37:48;19.20;99.90
45008;DHT22;30743;52.008;5.644;2023-05-23T00:40:19;19.10;99.90
45008;DHT22;30743;52.008;5.644;2023-05-23T00:42:46;19.00;99.90
45008;DHT22;30743;52.008;5.644;2023-05-23T00:45:12;18.80;99.90
45008;DHT22;30743;52.008;5.644;2023-05-23T00:47:41;18.80;99.90
45008;DHT22;30743;52.008;5.644;2023-05-23T00:50:08;18.70;99.90
45008;DHT22;30743;52.008;5.644;2023-05-23T00:52:36;18.40;99.90
45008;DHT22;30743;52.008;5.644;2023-05-23T00:55:02;18.30;99.90
45008;DHT22;30743;52.008;5.644;2023-05-23T00:57:28;18.40;99.90
45008;DHT22;30743;52.008;5.644;2023-05-23T00:59:54;18.30;99.90
45008;DHT22;30743;52.008;5.644;2023-05-23T01:02:20;18.50;99.90
45008;DHT22;30743;52.008;5.644;2023-05-23T01:04:49;18.40;99.90
45008;DHT22;30743;52.008;5.644;2023-05-23T01:07:19;18.30;99.90
45008;DHT22;30743;52.008;5.644;2023-05-23T01:09:45;18.30;99.90
45008;DHT22;30743;52.008;5.644;2023-05-23T01:12:27;18.40;99.90
45008;DHT22;30743;52.008;5.644;2023-05-23T01:17:51;18.30;99.90
45008;DHT22;30743;52.008;5.644;2023-05-23T01:20:27;18.40;99.90
45008;DHT22;30743;52.008;5.644;2023-05-23T01:26:03;18.50;99.90
45008;DHT22;30743;52.008;5.644;2023-05-23T01:28:36;18.60;99.90
45008;DHT22;30743;52.008;5.644;2023-05-23T01:31:03;18.50;99.90
45008;DHT22;30743;52.008;5.644;2023-05-23T01:33:31;18.30;99.90
45008;DHT22;30743;52.008;5.644;2023-05-23T01:35:58;18.10;99.90
45008;DHT22;30743;52.008;5.644;2023-05-23T01:38:25;18.30;99.90
45008;DHT22;30743;52.008;5.644;2023-05-23T01:40:52;18.30;99.90
45008;DHT22;30743;52.008;5.644;2023-05-23T01:43:18;18.30;99.90
45008;DHT22;30743;52.008;5.644;2023-05-23T01:45:44;19.50;99.90
45008;DHT22;30743;52.008;5.644;2023-05-23T01:48:10;18.50;99.90
45008;DHT22;30743;52.008;5.644;2023-05-23T01:50:36;18.50;99.90
45008;DHT22;30743;52.008;5.644;2023-05-23T01:53:03;18.40;99.90
45008;DHT22;30743;52.008;5.644;2023-05-23T01:55:29;18.50;99.90
45008;DHT22;30743;52.008;5.644;2023-05-23T01:57:56;19.20;99.90
45008;DHT22;30743;52.008;5.644;2023-05-23T02:00:22;18.40;99.90
45008;DHT22;30743;52.008;5.644;2023-05-23T02:02:48;18.40;99.90
45008;DHT22;30743;52.008;5.644;2023-05-23T02:05:14;18.30;99.90
45008;DHT22;30743;52.008;5.644;2023-05-23T02:07:39;18.30;99.90
45008;DHT22;30743;52.008;5.644;2023-05-23T02:10:07;18.40;99.90
45008;DHT22;30743;52.008;5.644;2023-05-23T02:12:33;18.40;99.90
45008;DHT22;30743;52.008;5.644;2023-05-23T02:14:59;18.30;99.90
45008;DHT22;30743;52.008;5.644;2023-05-23T02:17:24;18.30;99.90
45008;DHT22;30743;52.008;5.644;2023-05-23T02:19:50;18.30;99.90
45008;DHT22;30743;52.008;5.644;2023-05-23T02:22:16;18.00;99.90
45008;DHT22;30743;52.008;5.644;2023-05-23T02:24:41;17.80;99.90
45008;DHT22;30743;52.008;5.644;2023-05-23T02:27:07;17.90;99.90
45008;DHT22;30743;52.008;5.644;2023-05-23T02:29:32;18.00;99.90
45008;DHT22;30743;52.008;5.644;2023-05-23T02:31:58;18.00;99.90
45008;DHT22;30743;52.008;5.644;2023-05-23T02:34:23;18.10;99.90
45008;DHT22;30743;52.008;5.644;2023-05-23T02:36:49;18.00;99.90
45008;DHT22;30743;52.008;5.644;2023-05-23T02:39:16;18.90;99.90
45008;DHT22;30743;52.008;5.644;2023-05-23T02:41:41;18.00;99.90
45008;DHT22;30743;52.008;5.644;2023-05-23T02:44:07;18.10;99.90
45008;DHT22;30743;52.008;5.644;2023-05-23T02:46:32;18.10;99.90
45008;DHT22;30743;52.008;5.644;2023-05-23T02:48:58;18.10;99.90
45008;DHT22;30743;52.008;5.644;2023-05-23T02:51:23;17.90;99.90
45008;DHT22;30743;52.008;5.644;2023-05-23T02:53:49;18.10;99.90
45008;DHT22;30743;52.008;5.644;2023-05-23T02:56:15;18.10;99.90
45008;DHT22;30743;52.008;5.644;2023-05-23T02:58:40;18.20;99.90
45008;DHT22;30743;52.008;5.644;2023-05-23T03:01:06;18.00;99.90
45008;DHT22;30743;52.008;5.644;2023-05-23T03:03:36;18.10;99.90
45008;DHT22;30743;52.008;5.644;2023-05-23T03:06:02;18.00;99.90
45008;DHT22;30743;52.008;5.644;2023-05-23T03:08:29;18.00;99.90
45008;DHT22;30743;52.008;5.644;2023-05-23T03:10:54;17.90;99.90
45008;DHT22;30743;52.008;5.644;2023-05-23T03:13:20;17.90;99.90
45008;DHT22;30743;52.008;5.644;2023-05-23T03:15:46;17.70;99.90
45008;DHT22;30743;52.008;5.644;2023-05-23T03:18:11;18.00;99.90
45008;DHT22;30743;52.008;5.644;2023-05-23T03:20:37;18.10;99.90
45008;DHT22;30743;52.008;5.644;2023-05-23T03:23:02;18.10;99.90
45008;DHT22;30743;52.008;5.644;2023-05-23T03:25:28;18.30;99.90
45008;DHT22;30743;52.008;5.644;2023-05-23T03:27:54;17.80;99.90
45008;DHT22;30743;52.008;5.644;2023-05-23T03:30:20;18.00;99.90
45008;DHT22;30743;52.008;5.644;2023-05-23T03:32:45;17.90;99.90
45008;DHT22;30743;52.008;5.644;2023-05-23T03:35:11;18.00;99.90
45008;DHT22;30743;52.008;5.644;2023-05-23T03:37:37;18.20;99.90
45008;DHT22;30743;52.008;5.644;2023-05-23T03:40:02;18.30;99.90
45008;DHT22;30743;52.008;5.644;2023-05-23T03:42:29;18.30;99.90
45008;DHT22;30743;52.008;5.644;2023-05-23T03:44:54;18.20;99.90
45008;DHT22;30743;52.008;5.644;2023-05-23T03:47:20;18.30;99.90
45008;DHT22;30743;52.008;5.644;2023-05-23T03:49:46;18.20;99.90
45008;DHT22;30743;52.008;5.644;2023-05-23T03:52:11;18.20;99.90
45008;DHT22;30743;52.008;5.644;2023-05-23T03:54:37;18.30;99.90
45008;DHT22;30743;52.008;5.644;2023-05-23T03:57:02;18.50;99.90
45008;DHT22;30743;52.008;5.644;2023-05-23T03:59:28;18.40;99.90
45008;DHT22;30743;52.008;5.644;2023-05-23T04:01:54;18.30;99.90
45008;DHT22;30743;52.008;5.644;2023-05-23T04:04:23;18.20;99.90
45008;DHT22;30743;52.008;5.644;2023-05-23T04:06:49;18.00;99.90
45008;DHT22;30743;52.008;5.644;2023-05-23T04:09:15;18.10;99.90
45008;DHT22;30743;52.008;5.644;2023-05-23T04:11:41;18.00;99.90
45008;DHT22;30743;52.008;5.644;2023-05-23T04:14:07;18.00;99.90
45008;DHT22;30743;52.008;5.644;2023-05-23T04:16:32;18.10;99.90
45008;DHT22;30743;52.008;5.644;2023-05-23T04:19:00;18.10;99.90
45008;DHT22;30743;52.008;5.644;2023-05-23T04:21:26;18.20;99.90
45008;DHT22;30743;52.008;5.644;2023-05-23T04:23:52;18.20;99.90
45008;DHT22;30743;52.008;5.644;2023-05-23T04:26:18;18.10;99.90
45008;DHT22;30743;52.008;5.644;2023-05-23T04:28:43;18.00;99.90
45008;DHT22;30743;52.008;5.644;2023-05-23T04:31:10;17.90;99.90
45008;DHT22;30743;52.008;5.644;2023-05-23T04:33:37;17.60;99.90
45008;DHT22;30743;52.008;5.644;2023-05-23T04:36:03;17.60;99.90
45008;DHT22;30743;52.008;5.644;2023-05-23T04:38:29;17.70;99.90
45008;DHT22;30743;52.008;5.644;2023-05-23T04:40:54;17.50;99.90
45008;DHT22;30743;52.008;5.644;2023-05-23T04:43:20;17.50;99.90
45008;DHT22;30743;52.008;5.644;2023-05-23T04:45:46;17.40;99.90
45008;DHT22;30743;52.008;5.644;2023-05-23T04:48:14;17.10;99.90
45008;DHT22;30743;52.008;5.644;2023-05-23T04:50:41;17.10;99.90
45008;DHT22;30743;52.008;5.644;2023-05-23T04:53:07;17.20;99.90
45008;DHT22;30743;52.008;5.644;2023-05-23T04:55:33;16.90;99.90
45008;DHT22;30743;52.008;5.644;2023-05-23T04:57:59;17.10;99.90
45008;DHT22;30743;52.008;5.644;2023-05-23T05:00:25;17.40;99.90
45008;DHT22;30743;52.008;5.644;2023-05-23T05:02:51;17.50;99.90
45008;DHT22;30743;52.008;5.644;2023-05-23T05:05:16;17.50;99.90
45008;DHT22;30743;52.008;5.644;2023-05-23T05:07:42;17.20;99.90
45008;DHT22;30743;52.008;5.644;2023-05-23T05:10:09;17.40;99.90
45008;DHT22;30743;52.008;5.644;2023-05-23T05:12:44;16.90;99.90
45008;DHT22;30743;52.008;5.644;2023-05-23T05:15:11;16.90;99.90
45008;DHT22;30743;52.008;5.644;2023-05-23T05:17:37;16.90;99.90
45008;DHT22;30743;52.008;5.644;2023-05-23T05:20:03;16.50;99.90
45008;DHT22;30743;52.008;5.644;2023-05-23T05:22:34;16.40;99.90
45008;DHT22;30743;52.008;5.644;2023-05-23T05:24:59;16.40;99.90
45008;DHT22;30743;52.008;5.644;2023-05-23T05:27:26;16.50;99.90
45008;DHT22;30743;52.008;5.644;2023-05-23T05:29:52;16.40;99.90
45008;DHT22;30743;52.008;5.644;2023-05-23T05:32:18;16.40;99.90
45008;DHT22;30743;52.008;5.644;2023-05-23T05:34:43;16.40;99.90
45008;DHT22;30743;52.008;5.644;2023-05-23T05:37:10;16.50;99.90
45008;DHT22;30743;52.008;5.644;2023-05-23T05:39:38;16.40;99.90
45008;DHT22;30743;52.008;5.644;2023-05-23T05:42:04;16.50;99.90
45008;DHT22;30743;52.008;5.644;2023-05-23T05:44:29;16.70;99.90
45008;DHT22;30743;52.008;5.644;2023-05-23T05:46:55;16.80;99.90
45008;DHT22;30743;52.008;5.644;2023-05-23T05:49:21;16.90;99.90
45008;DHT22;30743;52.008;5.644;2023-05-23T05:51:46;17.00;99.90
45008;DHT22;30743;52.008;5.644;2023-05-23T05:54:12;16.90;99.90
45008;DHT22;30743;52.008;5.644;2023-05-23T05:56:38;16.80;99.90
45008;DHT22;30743;52.008;5.644;2023-05-23T05:59:03;16.40;99.90
45008;DHT22;30743;52.008;5.644;2023-05-23T06:01:29;16.40;99.90
45008;DHT22;30743;52.008;5.644;2023-05-23T06:03:55;16.50;99.90
45008;DHT22;30743;52.008;5.644;2023-05-23T06:06:20;16.60;99.90
45008;DHT22;30743;52.008;5.644;2023-05-23T06:08:46;16.70;99.90
45008;DHT22;30743;52.008;5.644;2023-05-23T06:11:12;17.00;99.90
45008;DHT22;30743;52.008;5.644;2023-05-23T06:13:38;17.20;99.90
45008;DHT22;30743;52.008;5.644;2023-05-23T06:16:04;16.90;99.90
45008;DHT22;30743;52.008;5.644;2023-05-23T06:18:30;16.60;99.90
45008;DHT22;30743;52.008;5.644;2023-05-23T06:20:55;16.80;99.90
45008;DHT22;30743;52.008;5.644;2023-05-23T06:23:21;16.80;99.90
45008;DHT22;30743;52.008;5.644;2023-05-23T06:25:46;16.90;99.90
45008;DHT22;30743;52.008;5.644;2023-05-23T06:28:12;16.80;99.90
45008;DHT22;30743;52.008;5.644;2023-05-23T06:30:37;16.60;99.90
45008;DHT22;30743;52.008;5.644;2023-05-23T06:33:03;16.70;99.90
45008;DHT22;30743;52.008;5.644;2023-05-23T06:35:29;16.60;99.90
45008;DHT22;30743;52.008;5.644;2023-05-23T06:37:54;16.80;99.90
45008;DHT22;30743;52.008;5.644;2023-05-23T06:40:20;17.00;99.90
45008;DHT22;30743;52.008;5.644;2023-05-23T06:42:45;16.80;99.90
45008;DHT22;30743;52.008;5.644;2023-05-23T06:45:12;17.00;99.90
45008;DHT22;30743;52.008;5.644;2023-05-23T06:47:37;17.20;99.90
45008;DHT22;30743;52.008;5.644;2023-05-23T06:50:03;17.50;99.90
45008;DHT22;30743;52.008;5.644;2023-05-23T06:52:28;17.50;99.90
45008;DHT22;30743;52.008;5.644;2023-05-23T06:54:54;17.50;99.90
45008;DHT22;30743;52.008;5.644;2023-05-23T06:57:20;17.60;99.90
45008;DHT22;30743;52.008;5.644;2023-05-23T06:59:45;17.60;99.90
45008;DHT22;30743;52.008;5.644;2023-05-23T07:02:11;17.60;99.90
45008;DHT22;30743;52.008;5.644;2023-05-23T07:04:36;17.40;99.90
45008;DHT22;30743;52.008;5.644;2023-05-23T07:07:02;17.60;99.90
45008;DHT22;30743;52.008;5.644;2023-05-23T07:09:28;17.70;99.90
45008;DHT22;30743;52.008;5.644;2023-05-23T07:11:54;17.60;99.90
45008;DHT22;30743;52.008;5.644;2023-05-23T07:14:19;17.10;99.90
45008;DHT22;30743;52.008;5.644;2023-05-23T07:16:45;17.20;99.90
45008;DHT22;30743;52.008;5.644;2023-05-23T07:19:11;17.00;99.90
45008;DHT22;30743;52.008;5.644;2023-05-23T07:21:37;17.00;99.90
45008;DHT22;30743;52.008;5.644;2023-05-23T07:24:02;17.00;99.90
45008;DHT22;30743;52.008;5.644;2023-05-23T07:26:28;16.80;99.90
45008;DHT22;30743;52.008;5.644;2023-05-23T07:28:53;17.00;99.90
45008;DHT22;30743;52.008;5.644;2023-05-23T07:31:19;17.10;99.90
45008;DHT22;30743;52.008;5.644;2023-05-23T07:33:44;17.30;99.90
45008;DHT22;30743;52.008;5.644;2023-05-23T07:36:10;17.40;99.90
45008;DHT22;30743;52.008;5.644;2023-05-23T07:38:36;17.40;99.90
45008;DHT22;30743;52.008;5.644;2023-05-23T07:41:01;17.60;99.90
45008;DHT22;30743;52.008;5.644;2023-05-23T07:43:27;17.60;99.90
45008;DHT22;30743;52.008;5.644;2023-05-23T07:45:52;17.40;99.90
45008;DHT22;30743;52.008;5.644;2023-05-23T07:48:18;17.40;99.90
45008;DHT22;30743;52.008;5.644;2023-05-23T07:50:43;16.90;99.90
45008;DHT22;30743;52.008;5.644;2023-05-23T07:53:09;16.80;99.90
45008;DHT22;30743;52.008;5.644;2023-05-23T07:55:34;16.60;99.90
45008;DHT22;30743;52.008;5.644;2023-05-23T07:58:00;16.70;99.90
45008;DHT22;30743;52.008;5.644;2023-05-23T08:00:27;17.10;99.90
45008;DHT22;30743;52.008;5.644;2023-05-23T08:02:52;17.30;99.90
45008;DHT22;30743;52.008;5.644;2023-05-23T08:05:18;17.40;99.90
45008;DHT22;30743;52.008;5.644;2023-05-23T08:07:44;17.70;99.90
45008;DHT22;30743;52.008;5.644;2023-05-23T08:10:10;17.90;99.90
45008;DHT22;30743;52.008;5.644;2023-05-23T08:12:35;17.80;99.90
45008;DHT22;30743;52.008;5.644;2023-05-23T08:15:01;17.90;99.90
45008;DHT22;30743;52.008;5.644;2023-05-23T08:17:26;17.40;99.90
45008;DHT22;30743;52.008;5.644;2023-05-23T08:19:52;17.40;99.90
45008;DHT22;30743;52.008;5.644;2023-05-23T08:22:17;17.70;99.90
45008;DHT22;30743;52.008;5.644;2023-05-23T08:24:43;18.20;99.90
45008;DHT22;30743;52.008;5.644;2023-05-23T08:27:08;18.10;99.90
45008;DHT22;30743;52.008;5.644;2023-05-23T08:29:34;18.40;99.90
45008;DHT22;30743;52.008;5.644;2023-05-23T08:32:01;18.40;99.90
45008;DHT22;30743;52.008;5.644;2023-05-23T08:34:27;18.40;99.90
45008;DHT22;30743;52.008;5.644;2023-05-23T08:36:52;18.00;99.90
45008;DHT22;30743;52.008;5.644;2023-05-23T08:39:18;17.70;99.90
45008;DHT22;30743;52.008;5.644;2023-05-23T08:41:43;17.60;99.90
45008;DHT22;30743;52.008;5.644;2023-05-23T08:44:09;17.70;99.90
45008;DHT22;30743;52.008;5.644;2023-05-23T08:46:43;18.10;99.90
45008;DHT22;30743;52.008;5.644;2023-05-23T08:49:09;18.20;99.90
45008;DHT22;30743;52.008;5.644;2023-05-23T08:51:36;17.60;99.90
45008;DHT22;30743;52.008;5.644;2023-05-23T08:54:02;17.70;99.90
45008;DHT22;30743;52.008;5.644;2023-05-23T08:56:29;17.50;99.90
45008;DHT22;30743;52.008;5.644;2023-05-23T08:58:54;17.50;99.90
45008;DHT22;30743;52.008;5.644;2023-05-23T09:01:21;17.50;99.90
45008;DHT22;30743;52.008;5.644;2023-05-23T09:03:47;17.70;99.90
45008;DHT22;30743;52.008;5.644;2023-05-23T09:06:15;17.70;99.90
45008;DHT22;30743;52.008;5.644;2023-05-23T09:08:43;17.70;99.90
45008;DHT22;30743;52.008;5.644;2023-05-23T09:11:10;17.60;99.90
45008;DHT22;30743;52.008;5.644;2023-05-23T09:13:37;17.70;99.90
45008;DHT22;30743;52.008;5.644;2023-05-23T09:16:05;17.70;99.90
45008;DHT22;30743;52.008;5.644;2023-05-23T09:21:02;18.00;99.90
45008;DHT22;30743;52.008;5.644;2023-05-23T09:23:33;18.20;99.90
45008;DHT22;30743;52.008;5.644;2023-05-23T09:26:03;18.50;99.90
45008;DHT22;30743;52.008;5.644;2023-05-23T09:28:30;19.00;99.90
45008;DHT22;30743;52.008;5.644;2023-05-23T09:31:03;19.20;99.90
45008;DHT22;30743;52.008;5.644;2023-05-23T09:33:45;19.50;99.90
45008;DHT22;30743;52.008;5.644;2023-05-23T09:36:12;19.40;99.90
45008;DHT22;30743;52.008;5.644;2023-05-23T09:38:42;19.30;99.90
45008;DHT22;30743;52.008;5.644;2023-05-23T09:41:09;19.10;99.90
45008;DHT22;30743;52.008;5.644;2023-05-23T09:43:52;19.00;99.90
45008;DHT22;30743;52.008;5.644;2023-05-23T09:46:19;18.90;99.90
45008;DHT22;30743;52.008;5.644;2023-05-23T09:48:49;19.20;99.90
45008;DHT22;30743;52.008;5.644;2023-05-23T09:51:19;19.40;99.90
45008;DHT22;30743;52.008;5.644;2023-05-23T09:53:48;19.50;99.90
45008;DHT22;30743;52.008;5.644;2023-05-23T09:56:18;19.80;99.90
45008;DHT22;30743;52.008;5.644;2023-05-23T09:58:45;20.00;99.90
45008;DHT22;30743;52.008;5.644;2023-05-23T10:01:11;20.10;99.90
45008;DHT22;30743;52.008;5.644;2023-05-23T10:03:47;20.30;99.90
45008;DHT22;30743;52.008;5.644;2023-05-23T10:06:17;20.90;99.90
45008;DHT22;30743;52.008;5.644;2023-05-23T10:08:51;20.80;99.90
45008;DHT22;30743;52.008;5.644;2023-05-23T10:14:08;20.60;99.90
45008;DHT22;30743;52.008;5.644;2023-05-23T10:19:34;20.50;99.90
45008;DHT22;30743;52.008;5.644;2023-05-23T10:22:06;20.60;99.90
45008;DHT22;30743;52.008;5.644;2023-05-23T10:24:33;20.70;99.90
45008;DHT22;30743;52.008;5.644;2023-05-23T10:27:00;21.10;99.80
45008;DHT22;30743;52.008;5.644;2023-05-23T10:29:26;21.30;99.90
45008;DHT22;30743;52.008;5.644;2023-05-23T10:31:53;21.30;99.40
45008;DHT22;30743;52.008;5.644;2023-05-23T10:42:22;20.80;99.90
45008;DHT22;30743;52.008;5.644;2023-05-23T10:44:51;20.90;98.30
45008;DHT22;30743;52.008;5.644;2023-05-23T10:47:26;21.00;99.30
45008;DHT22;30743;52.008;5.644;2023-05-23T10:49:54;20.70;99.70
45008;DHT22;30743;52.008;5.644;2023-05-23T10:52:21;20.80;99.90
45008;DHT22;30743;52.008;5.644;2023-05-23T10:54:53;21.20;99.50
45008;DHT22;30743;52.008;5.644;2023-05-23T10:57:20;21.30;99.50
45008;DHT22;30743;52.008;5.644;2023-05-23T10:59:49;21.20;99.30
45008;DHT22;30743;52.008;5.644;2023-05-23T11:02:24;21.00;99.80
45008;DHT22;30743;52.008;5.644;2023-05-23T11:05:16;20.70;99.90
45008;DHT22;30743;52.008;5.644;2023-05-23T11:07:42;20.50;99.20
45008;DHT22;30743;52.008;5.644;2023-05-23T11:10:12;20.30;99.90
45008;DHT22;30743;52.008;5.644;2023-05-23T11:12:43;19.90;98.90
45008;DHT22;30743;52.008;5.644;2023-05-23T11:15:18;20.30;99.90
45008;DHT22;30743;52.008;5.644;2023-05-23T11:17:51;20.40;99.90
45008;DHT22;30743;52.008;5.644;2023-05-23T11:20:18;20.80;99.50
45008;DHT22;30743;52.008;5.644;2023-05-23T11:22:58;20.90;99.90
45008;DHT22;30743;52.008;5.644;2023-05-23T11:25:42;21.20;99.90
45008;DHT22;30743;52.008;5.644;2023-05-23T11:28:08;21.30;99.00
45008;DHT22;30743;52.008;5.644;2023-05-23T11:30:35;21.30;99.10
45008;DHT22;30743;52.008;5.644;2023-05-23T11:33:11;21.80;99.30
45008;DHT22;30743;52.008;5.644;2023-05-23T11:35:41;21.70;99.90
45008;DHT22;30743;52.008;5.644;2023-05-23T11:38:08;21.40;99.80
45008;DHT22;30743;52.008;5.644;2023-05-23T11:40:42;21.70;99.10
45008;DHT22;30743;52.008;5.644;2023-05-23T11:43:09;21.20;97.60
45008;DHT22;30743;52.008;5.644;2023-05-23T11:45:36;21.50;99.90
45008;DHT22;30743;52.008;5.644;2023-05-23T11:48:06;21.50;99.90
45008;DHT22;30743;52.008;5.644;2023-05-23T11:50:32;21.80;99.50
45008;DHT22;30743;52.008;5.644;2023-05-23T11:52:59;21.90;98.10
45008;DHT22;30743;52.008;5.644;2023-05-23T11:55:24;22.30;98.90
45008;DHT22;30743;52.008;5.644;2023-05-23T11:57:50;22.40;97.90
45008;DHT22;30743;52.008;5.644;2023-05-23T12:00:16;22.40;97.80
45008;DHT22;30743;52.008;5.644;2023-05-23T12:02:44;22.40;97.00
45008;DHT22;30743;52.008;5.644;2023-05-23T12:05:11;21.90;96.00
45008;DHT22;30743;52.008;5.644;2023-05-23T12:07:44;22.00;97.30
45008;DHT22;30743;52.008;5.644;2023-05-23T12:10:12;22.00;96.30
45008;DHT22;30743;52.008;5.644;2023-05-23T12:12:40;21.00;97.40
45008;DHT22;30743;52.008;5.644;2023-05-23T12:15:10;20.90;98.40
45008;DHT22;30743;52.008;5.644;2023-05-23T12:17:37;20.70;97.90
45008;DHT22;30743;52.008;5.644;2023-05-23T12:20:04;20.90;97.30
45008;DHT22;30743;52.008;5.644;2023-05-23T12:22:30;20.60;97.70
45008;DHT22;30743;52.008;5.644;2023-05-23T12:24:56;20.80;98.40
45008;DHT22;30743;52.008;5.644;2023-05-23T12:27:29;20.50;98.40
45008;DHT22;30743;52.008;5.644;2023-05-23T12:30:09;20.70;99.20
45008;DHT22;30743;52.008;5.644;2023-05-23T12:32:39;20.70;98.80
45008;DHT22;30743;52.008;5.644;2023-05-23T12:35:10;21.00;99.10
45008;DHT22;30743;52.008;5.644;2023-05-23T12:37:39;21.10;99.30
45008;DHT22;30743;52.008;5.644;2023-05-23T12:40:13;21.40;99.90
45008;DHT22;30743;52.008;5.644;2023-05-23T12:42:52;21.60;98.60
45008;DHT22;30743;52.008;5.644;2023-05-23T12:45:22;21.60;99.50
45008;DHT22;30743;52.008;5.644;2023-05-23T12:47:48;21.50;98.60
45008;DHT22;30743;52.008;5.644;2023-05-23T12:50:14;21.70;98.30
45008;DHT22;30743;52.008;5.644;2023-05-23T12:52:39;21.70;98.10
45008;DHT22;30743;52.008;5.644;2023-05-23T12:55:06;21.60;98.10
45008;DHT22;30743;52.008;5.644;2023-05-23T12:57:33;21.80;96.40
45008;DHT22;30743;52.008;5.644;2023-05-23T12:59:59;21.90;96.70
45008;DHT22;30743;52.008;5.644;2023-05-23T13:02:26;21.70;97.00
45008;DHT22;30743;52.008;5.644;2023-05-23T13:04:52;21.40;97.40
45008;DHT22;30743;52.008;5.644;2023-05-23T13:07:17;21.80;98.10
45008;DHT22;30743;52.008;5.644;2023-05-23T13:09:43;21.90;98.30
45008;DHT22;30743;52.008;5.644;2023-05-23T13:12:08;22.10;98.20
45008;DHT22;30743;52.008;5.644;2023-05-23T13:14:34;22.00;97.40
45008;DHT22;30743;52.008;5.644;2023-05-23T13:17:00;21.80;96.00
45008;DHT22;30743;52.008;5.644;2023-05-23T13:19:25;21.50;95.90
45008;DHT22;30743;52.008;5.644;2023-05-23T13:21:51;20.90;96.50
45008;DHT22;30743;52.008;5.644;2023-05-23T13:24:16;20.90;97.80
45008;DHT22;30743;52.008;5.644;2023-05-23T13:26:42;20.90;97.20
45008;DHT22;30743;52.008;5.644;2023-05-23T13:29:07;20.80;96.50
45008;DHT22;30743;52.008;5.644;2023-05-23T13:31:33;21.60;98.00
45008;DHT22;30743;52.008;5.644;2023-05-23T13:33:59;20.90;97.50
45008;DHT22;30743;52.008;5.644;2023-05-23T13:36:24;21.30;98.40
45008;DHT22;30743;52.008;5.644;2023-05-23T13:38:50;21.40;98.60
45008;DHT22;30743;52.008;5.644;2023-05-23T13:41:16;21.30;96.50
45008;DHT22;30743;52.008;5.644;2023-05-23T13:43:42;21.40;96.50
45008;DHT22;30743;52.008;5.644;2023-05-23T13:46:07;21.30;96.30
45008;DHT22;30743;52.008;5.644;2023-05-23T13:48:33;21.50;96.40
45008;DHT22;30743;52.008;5.644;2023-05-23T13:51:00;21.60;96.10
45008;DHT22;30743;52.008;5.644;2023-05-23T13:53:25;21.30;95.20
45008;DHT22;30743;52.008;5.644;2023-05-23T13:55:51;21.60;95.50
45008;DHT22;30743;52.008;5.644;2023-05-23T13:58:17;21.90;95.80
45008;DHT22;30743;52.008;5.644;2023-05-23T14:00:43;22.10;95.20
45008;DHT22;30743;52.008;5.644;2023-05-23T14:03:08;22.10;95.80
45008;DHT22;30743;52.008;5.644;2023-05-23T14:05:34;22.20;97.50
45008;DHT22;30743;52.008;5.644;2023-05-23T14:08:01;22.40;95.40
45008;DHT22;30743;52.008;5.644;2023-05-23T14:10:26;22.60;95.20
45008;DHT22;30743;52.008;5.644;2023-05-23T14:12:54;22.50;95.10
45008;DHT22;30743;52.008;5.644;2023-05-23T14:15:20;22.10;95.10
45008;DHT22;30743;52.008;5.644;2023-05-23T14:17:45;22.30;95.40
45008;DHT22;30743;52.008;5.644;2023-05-23T14:20:12;22.50;94.80
45008;DHT22;30743;52.008;5.644;2023-05-23T14:22:37;22.10;95.00
45008;DHT22;30743;52.008;5.644;2023-05-23T14:25:03;21.70;94.70
45008;DHT22;30743;52.008;5.644;2023-05-23T14:27:29;21.70;95.30
45008;DHT22;30743;52.008;5.644;2023-05-23T14:29:54;21.40;95.40
45008;DHT22;30743;52.008;5.644;2023-05-23T14:32:21;21.70;96.20
45008;DHT22;30743;52.008;5.644;2023-05-23T14:34:46;21.30;94.80
45008;DHT22;30743;52.008;5.644;2023-05-23T14:37:12;21.20;96.00
45008;DHT22;30743;52.008;5.644;2023-05-23T14:39:37;21.90;98.00
45008;DHT22;30743;52.008;5.644;2023-05-23T14:42:03;21.70;96.60
45008;DHT22;30743;52.008;5.644;2023-05-23T14:44:29;21.90;94.40
45008;DHT22;30743;52.008;5.644;2023-05-23T14:46:54;22.30;95.40
45008;DHT22;30743;52.008;5.644;2023-05-23T14:49:20;22.30;95.00
45008;DHT22;30743;52.008;5.644;2023-05-23T14:51:46;22.40;95.20
45008;DHT22;30743;52.008;5.644;2023-05-23T14:54:11;21.90;93.50
45008;DHT22;30743;52.008;5.644;2023-05-23T14:56:37;22.00;94.70
45008;DHT22;30743;52.008;5.644;2023-05-23T14:59:04;22.10;94.40
45008;DHT22;30743;52.008;5.644;2023-05-23T15:01:29;22.40;95.30
45008;DHT22;30743;52.008;5.644;2023-05-23T15:03:55;22.80;94.20
45008;DHT22;30743;52.008;5.644;2023-05-23T15:06:21;21.30;94.70
45008;DHT22;30743;52.008;5.644;2023-05-23T15:08:46;21.10;94.20
45008;DHT22;30743;52.008;5.644;2023-05-23T15:11:12;21.30;95.10
45008;DHT22;30743;52.008;5.644;2023-05-23T15:13:37;21.60;94.50
45008;DHT22;30743;52.008;5.644;2023-05-23T15:16:03;21.10;95.20
45008;DHT22;30743;52.008;5.644;2023-05-23T15:18:29;20.80;95.50
45008;DHT22;30743;52.008;5.644;2023-05-23T15:20:54;20.30;94.10
45008;DHT22;30743;52.008;5.644;2023-05-23T15:23:20;20.20;95.50
45008;DHT22;30743;52.008;5.644;2023-05-23T15:25:45;19.80;96.00
45008;DHT22;30743;52.008;5.644;2023-05-23T15:28:11;20.10;95.70
45008;DHT22;30743;52.008;5.644;2023-05-23T15:30:37;20.10;96.10
45008;DHT22;30743;52.008;5.644;2023-05-23T15:33:02;20.30;95.60
45008;DHT22;30743;52.008;5.644;2023-05-23T15:35:28;20.00;95.20
45008;DHT22;30743;52.008;5.644;2023-05-23T15:37:53;20.00;94.90
45008;DHT22;30743;52.008;5.644;2023-05-23T15:40:19;20.10;95.00
45008;DHT22;30743;52.008;5.644;2023-05-23T15:42:46;20.10;95.60
45008;DHT22;30743;52.008;5.644;2023-05-23T15:45:11;20.30;96.00
45008;DHT22;30743;52.008;5.644;2023-05-23T15:47:37;20.60;95.10
45008;DHT22;30743;52.008;5.644;2023-05-23T15:50:03;20.60;95.70